sensor_id;sensor_type;location;lat;lon;timestamp;temperature;humidity
7461;DHT22;6757;52.258;12.840;2022-11-11T00:00:35;7.50;99.90
7461;DHT22;6757;52.258;12.840;2022-11-11T00:03:03;7.50;99.90
7461;DHT22;6757;52.258;12.840;2022-11-11T00:05:32;7.50;99.90
7461;DHT22;6757;52.258;12.840;2022-11-11T00:07:59;7.50;99.90
7461;DHT22;6757;52.258;12.840;2022-11-11T00:10:27;7.40;99.90
7461;DHT22;6757;52.258;12.840;2022-11-11T00:12:58;7.40;99.90
7461;DHT22;6757;52.258;12.840;2022-11-11T00:15:26;7.40;99.90
7461;DHT22;6757;52.258;12.840;2022-11-11T00:17:53;7.40;99.90
7461;DHT22;6757;52.258;12.840;2022-11-11T00:20:39;7.40;99.90
7461;DHT22;6757;52.258;12.840;2022-11-11T00:23:25;7.40;99.90
7461;DHT22;6757;52.258;12.840;2022-11-11T00:26:12;7.40;99.90
7461;DHT22;6757;52.258;12.840;2022-11-11T00:28:40;7.40;99.90
7461;DHT22;6757;52.258;12.840;2022-11-11T00:31:09;7.40;99.90
7461;DHT22;6757;52.258;12.840;2022-11-11T00:33:36;7.30;99.90
7461;DHT22;6757;52.258;12.840;2022-11-11T00:36:06;7.30;99.90
7461;DHT22;6757;52.258;12.840;2022-11-11T00:38:32;7.30;99.90
7461;DHT22;6757;52.258;12.840;2022-11-11T00:41:13;7.30;99.90
7461;DHT22;6757;52.258;12.840;2022-11-11T00:43:42;7.30;99.90
7461;DHT22;6757;52.258;12.840;2022-11-11T00:46:10;7.30;99.90
7461;DHT22;6757;52.258;12.840;2022-11-11T00:48:54;7.30;99.90
7461;DHT22;6757;52.258;12.840;2022-11-11T00:51:40;7.20;99.90
7461;DHT22;6757;52.258;12.840;2022-11-11T00:54:07;7.20;99.90
7461;DHT22;6757;52.258;12.840;2022-11-11T00:56:35;7.20;99.90
7461;DHT22;6757;52.258;12.840;2022-11-11T00:59:02;7.20;99.90
7461;DHT22;6757;52.258;12.840;2022-11-11T01:01:30;7.20;99.90
7461;DHT22;6757;52.258;12.840;2022-11-11T01:03:57;7.10;99.90
7461;DHT22;6757;52.258;12.840;2022-11-11T01:06:24;7.10;99.90
7461;DHT22;6757;52.258;12.840;2022-11-11T01:08:53;7.10;99.90
7461;DHT22;6757;52.258;12.840;2022-11-11T01:11:22;7.00;99.90
7461;DHT22;6757;52.258;12.840;2022-11-11T01:13:50;7.00;99.90
7461;DHT22;6757;52.258;12.840;2022-11-11T01:16:19;7.00;99.90
7461;DHT22;6757;52.258;12.840;2022-11-11T01:18:47;7.00;99.90
7461;DHT22;6757;52.258;12.840;2022-11-11T01:21:16;7.00;99.90
7461;DHT22;6757;52.258;12.840;2022-11-11T01:23:45;7.00;99.90
7461;DHT22;6757;52.258;12.840;2022-11-11T01:26:16;6.90;99.90
7461;DHT22;6757;52.258;12.840;2022-11-11T01:28:47;6.90;99.90
7461;DHT22;6757;52.258;12.840;2022-11-11T01:31:16;7.00;99.90
7461;DHT22;6757;52.258;12.840;2022-11-11T01:33:44;6.90;99.90
7461;DHT22;6757;52.258;12.840;2022-11-11T01:36:13;6.90;99.90
7461;DHT22;6757;52.258;12.840;2022-11-11T01:38:41;6.90;99.90
7461;DHT22;6757;52.258;12.840;2022-11-11T01:41:11;6.90;99.90
7461;DHT22;6757;52.258;12.840;2022-11-11T01:44:17;6.90;99.90
7461;DHT22;6757;52.258;12.840;2022-11-11T01:46:48;6.90;99.90
7461;DHT22;6757;52.258;12.840;2022-11-11T01:49:23;6.90;99.90
7461;DHT22;6757;52.258;12.840;2022-11-11T01:51:58;6.90;99.90
7461;DHT22;6757;52.258;12.840;2022-11-11T01:54:32;6.90;99.90
7461;DHT22;6757;52.258;12.840;2022-11-11T01:57:10;6.80;99.90
7461;DHT22;6757;52.258;12.840;2022-11-11T01:59:42;6.80;99.90
7461;DHT22;6757;52.258;12.840;2022-11-11T02:02:15;6.80;99.90
7461;DHT22;6757;52.258;12.840;2022-11-11T02:04:45;6.80;99.90
7461;DHT22;6757;52.258;12.840;2022-11-11T02:07:30;6.80;99.90
7461;DHT22;6757;52.258;12.840;2022-11-11T02:09:58;6.80;99.90
7461;DHT22;6757;52.258;12.840;2022-11-11T02:12:29;6.80;99.90
7461;DHT22;6757;52.258;12.840;2022-11-11T02:15:13;6.80;99.90
7461;DHT22;6757;52.258;12.840;2022-11-11T02:17:41;6.80;99.90
7461;DHT22;6757;52.258;12.840;2022-11-11T02:20:09;6.70;99.90
7461;DHT22;6757;52.258;12.840;2022-11-11T02:22:43;6.70;99.90
7461;DHT22;6757;52.258;12.840;2022-11-11T02:25:17;6.70;99.90
7461;DHT22;6757;52.258;12.840;2022-11-11T02:27:49;6.60;99.90
7461;DHT22;6757;52.258;12.840;2022-11-11T02:30:17;6.60;99.90
7461;DHT22;6757;52.258;12.840;2022-11-11T02:32:47;6.60;99.90
7461;DHT22;6757;52.258;12.840;2022-11-11T02:35:18;6.60;99.90
7461;DHT22;6757;52.258;12.840;2022-11-11T02:37:49;6.50;99.90
7461;DHT22;6757;52.258;12.840;2022-11-11T02:40:22;6.50;99.90
7461;DHT22;6757;52.258;12.840;2022-11-11T02:42:51;6.50;99.90
7461;DHT22;6757;52.258;12.840;2022-11-11T02:45:18;6.40;99.90
7461;DHT22;6757;52.258;12.840;2022-11-11T02:47:45;6.50;99.90
7461;DHT22;6757;52.258;12.840;2022-11-11T02:50:12;6.40;99.90
7461;DHT22;6757;52.258;12.840;2022-11-11T02:52:39;6.40;99.90
7461;DHT22;6757;52.258;12.840;2022-11-11T02:55:07;6.40;99.90
7461;DHT22;6757;52.258;12.840;2022-11-11T02:57:36;6.30;99.90
7461;DHT22;6757;52.258;12.840;2022-11-11T03:00:04;6.30;99.90
7461;DHT22;6757;52.258;12.840;2022-11-11T03:02:32;6.30;99.90
7461;DHT22;6757;52.258;12.840;2022-11-11T03:04:58;6.30;99.90
7461;DHT22;6757;52.258;12.840;2022-11-11T03:07:25;6.30;99.90
7461;DHT22;6757;52.258;12.840;2022-11-11T03:09:52;6.20;99.90
7461;DHT22;6757;52.258;12.840;2022-11-11T03:12:19;6.20;99.90
7461;DHT22;6757;52.258;12.840;2022-11-11T03:14:48;6.20;99.90
7461;DHT22;6757;52.258;12.840;2022-11-11T03:17:14;6.20;99.90
7461;DHT22;6757;52.258;12.840;2022-11-11T03:19:59;6.20;99.90
7461;DHT22;6757;52.258;12.840;2022-11-11T03:22:40;6.20;99.90
7461;DHT22;6757;52.258;12.840;2022-11-11T03:25:07;6.10;99.90
7461;DHT22;6757;52.258;12.840;2022-11-11T03:27:52;6.10;99.90
7461;DHT22;6757;52.258;12.840;2022-11-11T03:30:20;6.50;99.90
7461;DHT22;6757;52.258;12.840;2022-11-11T03:32:47;6.10;99.90
7461;DHT22;6757;52.258;12.840;2022-11-11T03:35:14;6.10;99.90
7461;DHT22;6757;52.258;12.840;2022-11-11T03:37:41;6.10;99.90
7461;DHT22;6757;52.258;12.840;2022-11-11T03:40:25;6.00;99.90
7461;DHT22;6757;52.258;12.840;2022-11-11T03:42:52;6.00;99.90
7461;DHT22;6757;52.258;12.840;2022-11-11T03:45:21;6.00;99.90
7461;DHT22;6757;52.258;12.840;2022-11-11T03:47:47;6.00;99.90
7461;DHT22;6757;52.258;12.840;2022-11-11T03:50:14;6.00;99.90
7461;DHT22;6757;52.258;12.840;2022-11-11T03:52:41;6.00;99.90
7461;DHT22;6757;52.258;12.840;2022-11-11T03:55:09;6.10;99.90
7461;DHT22;6757;52.258;12.840;2022-11-11T03:57:39;6.10;99.90
7461;DHT22;6757;52.258;12.840;2022-11-11T04:00:07;6.10;99.90
7461;DHT22;6757;52.258;12.840;2022-11-11T04:02:36;6.10;99.90
7461;DHT22;6757;52.258;12.840;2022-11-11T04:05:20;6.20;99.90
7461;DHT22;6757;52.258;12.840;2022-11-11T04:08:07;6.20;99.90
7461;DHT22;6757;52.258;12.840;2022-11-11T04:10:56;6.20;99.90
7461;DHT22;6757;52.258;12.840;2022-11-11T04:13:23;6.30;99.90
7461;DHT22;6757;52.258;12.840;2022-11-11T04:16:08;6.40;99.90
7461;DHT22;6757;52.258;12.840;2022-11-11T04:18:37;6.40;99.90
7461;DHT22;6757;52.258;12.840;2022-11-11T04:21:22;6.50;99.90
7461;DHT22;6757;52.258;12.840;2022-11-11T04:24:08;6.50;99.90
7461;DHT22;6757;52.258;12.840;2022-11-11T04:26:49;6.60;99.90
7461;DHT22;6757;52.258;12.840;2022-11-11T04:29:16;6.60;99.90
7461;DHT22;6757;52.258;12.840;2022-11-11T04:31:55;6.60;99.90
7461;DHT22;6757;52.258;12.840;2022-11-11T04:34:43;6.70;99.90
7461;DHT22;6757;52.258;12.840;2022-11-11T04:37:11;6.70;99.90
7461;DHT22;6757;52.258;12.840;2022-11-11T04:39:39;6.80;99.90
7461;DHT22;6757;52.258;12.840;2022-11-11T04:42:24;6.80;99.90
7461;DHT22;6757;52.258;12.840;2022-11-11T04:44:51;6.80;99.90
7461;DHT22;6757;52.258;12.840;2022-11-11T04:47:36;6.80;99.90
7461;DHT22;6757;52.258;12.840;2022-11-11T04:50:05;6.80;99.90
7461;DHT22;6757;52.258;12.840;2022-11-11T04:52:33;6.80;99.90
7461;DHT22;6757;52.258;12.840;2022-11-11T04:55:00;6.80;99.90
7461;DHT22;6757;52.258;12.840;2022-11-11T04:57:45;6.90;99.90
7461;DHT22;6757;52.258;12.840;2022-11-11T05:00:15;6.80;99.90
7461;DHT22;6757;52.258;12.840;2022-11-11T05:02:43;6.80;99.90
7461;DHT22;6757;52.258;12.840;2022-11-11T05:05:30;6.80;99.90
7461;DHT22;6757;52.258;12.840;2022-11-11T05:08:19;6.80;99.90
7461;DHT22;6757;52.258;12.840;2022-11-11T05:11:03;6.80;99.90
7461;DHT22;6757;52.258;12.840;2022-11-11T05:13:30;6.80;99.90
7461;DHT22;6757;52.258;12.840;2022-11-11T05:16:18;6.80;99.90
7461;DHT22;6757;52.258;12.840;2022-11-11T05:19:14;6.80;99.90
7461;DHT22;6757;52.258;12.840;2022-11-11T05:22:07;6.80;99.90
7461;DHT22;6757;52.258;12.840;2022-11-11T05:24:37;6.70;99.90
7461;DHT22;6757;52.258;12.840;2022-11-11T05:27:21;6.70;99.90
7461;DHT22;6757;52.258;12.840;2022-11-11T05:29:48;6.70;99.90
7461;DHT22;6757;52.258;12.840;2022-11-11T05:32:16;6.70;99.90
7461;DHT22;6757;52.258;12.840;2022-11-11T05:34:43;6.70;99.90
7461;DHT22;6757;52.258;12.840;2022-11-11T05:37:12;6.70;99.90
7461;DHT22;6757;52.258;12.840;2022-11-11T05:39:39;6.70;99.90
7461;DHT22;6757;52.258;12.840;2022-11-11T05:42:07;6.60;99.90
7461;DHT22;6757;52.258;12.840;2022-11-11T05:44:34;6.60;99.90
7461;DHT22;6757;52.258;12.840;2022-11-11T05:47:01;6.60;99.90
7461;DHT22;6757;52.258;12.840;2022-11-11T05:49:28;6.60;99.90
7461;DHT22;6757;52.258;12.840;2022-11-11T05:51:55;6.60;99.90
7461;DHT22;6757;52.258;12.840;2022-11-11T05:54:24;6.60;99.90
7461;DHT22;6757;52.258;12.840;2022-11-11T05:56:51;6.50;99.90
7461;DHT22;6757;52.258;12.840;2022-11-11T05:59:18;6.60;99.90
7461;DHT22;6757;52.258;12.840;2022-11-11T06:01:45;6.50;99.90
7461;DHT22;6757;52.258;12.840;2022-11-11T06:04:12;6.60;99.90
7461;DHT22;6757;52.258;12.840;2022-11-11T06:06:39;6.60;99.90
7461;DHT22;6757;52.258;12.840;2022-11-11T06:09:06;6.60;99.90
7461;DHT22;6757;52.258;12.840;2022-11-11T06:11:34;6.60;99.90
7461;DHT22;6757;52.258;12.840;2022-11-11T06:14:01;6.60;99.90
7461;DHT22;6757;52.258;12.840;2022-11-11T06:16:28;6.60;99.90
7461;DHT22;6757;52.258;12.840;2022-11-11T06:18:55;6.60;99.90
7461;DHT22;6757;52.258;12.840;2022-11-11T06:21:23;6.60;99.90
7461;DHT22;6757;52.258;12.840;2022-11-11T06:23:50;6.60;99.90
7461;DHT22;6757;52.258;12.840;2022-11-11T06:26:17;6.60;99.90
7461;DHT22;6757;52.258;12.840;2022-11-11T06:28:47;6.60;99.90
7461;DHT22;6757;52.258;12.840;2022-11-11T06:31:17;6.60;99.90
7461;DHT22;6757;52.258;12.840;2022-11-11T06:33:44;6.60;99.90
7461;DHT22;6757;52.258;12.840;2022-11-11T06:36:14;6.60;99.90
7461;DHT22;6757;52.258;12.840;2022-11-11T06:38:42;6.60;99.90
7461;DHT22;6757;52.258;12.840;2022-11-11T06:41:09;6.70;99.90
7461;DHT22;6757;52.258;12.840;2022-11-11T06:43:37;6.70;99.90
7461;DHT22;6757;52.258;12.840;2022-11-11T06:46:06;6.70;99.90
7461;DHT22;6757;52.258;12.840;2022-11-11T06:48:33;6.70;99.90
7461;DHT22;6757;52.258;12.840;2022-11-11T06:51:01;6.70;99.90
7461;DHT22;6757;52.258;12.840;2022-11-11T06:53:29;6.80;99.90
7461;DHT22;6757;52.258;12.840;2022-11-11T06:55:57;6.80;99.90
7461;DHT22;6757;52.258;12.840;2022-11-11T06:58:24;6.80;99.90
7461;DHT22;6757;52.258;12.840;2022-11-11T07:00:51;6.90;99.90
7461;DHT22;6757;52.258;12.840;2022-11-11T07:03:20;6.90;99.90
7461;DHT22;6757;52.258;12.840;2022-11-11T07:05:47;7.00;99.90
7461;DHT22;6757;52.258;12.840;2022-11-11T07:08:16;7.00;99.90
7461;DHT22;6757;52.258;12.840;2022-11-11T07:10:45;7.00;99.90
7461;DHT22;6757;52.258;12.840;2022-11-11T07:13:13;7.10;99.90
7461;DHT22;6757;52.258;12.840;2022-11-11T07:15:41;7.10;99.90
7461;DHT22;6757;52.258;12.840;2022-11-11T07:18:08;7.10;99.90
7461;DHT22;6757;52.258;12.840;2022-11-11T07:20:37;7.20;99.90
7461;DHT22;6757;52.258;12.840;2022-11-11T07:23:05;7.20;99.90
7461;DHT22;6757;52.258;12.840;2022-11-11T07:25:32;7.20;99.90
7461;DHT22;6757;52.258;12.840;2022-11-11T07:27:59;7.30;99.90
7461;DHT22;6757;52.258;12.840;2022-11-11T07:30:27;7.30;99.90
7461;DHT22;6757;52.258;12.840;2022-11-11T07:32:54;7.30;99.90
7461;DHT22;6757;52.258;12.840;2022-11-11T07:35:21;7.30;99.90
7461;DHT22;6757;52.258;12.840;2022-11-11T07:37:50;7.40;99.90
7461;DHT22;6757;52.258;12.840;2022-11-11T07:40:18;7.40;99.90
7461;DHT22;6757;52.258;12.840;2022-11-11T07:42:46;7.40;99.90
7461;DHT22;6757;52.258;12.840;2022-11-11T07:45:13;7.50;99.90
7461;DHT22;6757;52.258;12.840;2022-11-11T07:47:44;7.50;99.90
7461;DHT22;6757;52.258;12.840;2022-11-11T07:50:12;7.50;99.90
7461;DHT22;6757;52.258;12.840;2022-11-11T07:52:39;7.60;99.90
7461;DHT22;6757;52.258;12.840;2022-11-11T07:55:08;7.60;99.90
7461;DHT22;6757;52.258;12.840;2022-11-11T07:57:35;7.60;99.90
7461;DHT22;6757;52.258;12.840;2022-11-11T08:00:03;7.70;99.90
7461;DHT22;6757;52.258;12.840;2022-11-11T08:02:31;7.70;99.90
7461;DHT22;6757;52.258;12.840;2022-11-11T08:04:58;7.80;99.90
7461;DHT22;6757;52.258;12.840;2022-11-11T08:07:25;7.80;99.90
7461;DHT22;6757;52.258;12.840;2022-11-11T08:09:52;7.90;99.90
7461;DHT22;6757;52.258;12.840;2022-11-11T08:12:20;7.90;99.90
7461;DHT22;6757;52.258;12.840;2022-11-11T08:15:13;7.90;99.90
7461;DHT22;6757;52.258;12.840;2022-11-11T08:17:40;8.00;99.90
7461;DHT22;6757;52.258;12.840;2022-11-11T08:20:08;8.10;99.90
7461;DHT22;6757;52.258;12.840;2022-11-11T08:22:36;8.10;99.90
7461;DHT22;6757;52.258;12.840;2022-11-11T08:25:05;8.20;99.90
7461;DHT22;6757;52.258;12.840;2022-11-11T08:27:35;8.20;99.90
7461;DHT22;6757;52.258;12.840;2022-11-11T08:30:03;8.30;99.90
7461;DHT22;6757;52.258;12.840;2022-11-11T08:32:31;8.30;99.90
7461;DHT22;6757;52.258;12.840;2022-11-11T08:34:58;8.40;99.90
7461;DHT22;6757;52.258;12.840;2022-11-11T08:37:26;8.50;99.90
7461;DHT22;6757;52.258;12.840;2022-11-11T08:39:53;8.50;99.90
7461;DHT22;6757;52.258;12.840;2022-11-11T08:42:21;8.60;99.90
7461;DHT22;6757;52.258;12.840;2022-11-11T08:44:50;8.60;99.90
7461;DHT22;6757;52.258;12.840;2022-11-11T08:47:17;8.60;99.90
7461;DHT22;6757;52.258;12.840;2022-11-11T08:49:45;8.70;99.90
7461;DHT22;6757;52.258;12.840;2022-11-11T08:52:13;8.80;99.90
7461;DHT22;6757;52.258;12.840;2022-11-11T08:54:41;8.80;99.90
7461;DHT22;6757;52.258;12.840;2022-11-11T08:57:08;8.90;99.90
7461;DHT22;6757;52.258;12.840;2022-11-11T08:59:35;8.90;99.90
7461;DHT22;6757;52.258;12.840;2022-11-11T09:02:03;9.00;99.90
7461;DHT22;6757;52.258;12.840;2022-11-11T09:04:30;9.00;99.90
7461;DHT22;6757;52.258;12.840;2022-11-11T09:06:56;9.10;99.90
7461;DHT22;6757;52.258;12.840;2022-11-11T09:09:23;9.10;99.90
7461;DHT22;6757;52.258;12.840;2022-11-11T09:11:50;9.20;99.90
7461;DHT22;6757;52.258;12.840;2022-11-11T09:14:17;9.20;99.90
7461;DHT22;6757;52.258;12.840;2022-11-11T09:16:44;9.30;99.90
7461;DHT22;6757;52.258;12.840;2022-11-11T09:19:12;9.40;99.90
7461;DHT22;6757;52.258;12.840;2022-11-11T09:21:39;9.40;99.90
7461;DHT22;6757;52.258;12.840;2022-11-11T09:24:06;9.50;99.90
7461;DHT22;6757;52.258;12.840;2022-11-11T09:26:33;9.50;99.90
7461;DHT22;6757;52.258;12.840;2022-11-11T09:29:00;9.60;99.90
7461;DHT22;6757;52.258;12.840;2022-11-11T09:31:27;9.60;99.90
7461;DHT22;6757;52.258;12.840;2022-11-11T09:33:54;9.70;99.90
7461;DHT22;6757;52.258;12.840;2022-11-11T09:36:22;9.70;99.90
7461;DHT22;6757;52.258;12.840;2022-11-11T09:38:49;9.70;99.90
7461;DHT22;6757;52.258;12.840;2022-11-11T09:41:21;9.70;99.90
7461;DHT22;6757;52.258;12.840;2022-11-11T09:43:53;9.80;99.90
7461;DHT22;6757;52.258;12.840;2022-11-11T09:46:28;9.80;99.90
7461;DHT22;6757;52.258;12.840;2022-11-11T09:49:11;9.80;99.90
7461;DHT22;6757;52.258;12.840;2022-11-11T09:51:53;9.90;99.90
7461;DHT22;6757;52.258;12.840;2022-11-11T09:54:29;9.90;99.90
7461;DHT22;6757;52.258;12.840;2022-11-11T09:57:03;10.00;99.90
7461;DHT22;6757;52.258;12.840;2022-11-11T09:59:40;10.00;99.90
7461;DHT22;6757;52.258;12.840;2022-11-11T10:02:18;10.00;99.90
7461;DHT22;6757;52.258;12.840;2022-11-11T10:04:58;10.10;99.90
7461;DHT22;6757;52.258;12.840;2022-11-11T10:07:34;10.10;99.90
7461;DHT22;6757;52.258;12.840;2022-11-11T10:10:19;10.20;99.90
7461;DHT22;6757;52.258;12.840;2022-11-11T10:12:53;10.20;99.90
7461;DHT22;6757;52.258;12.840;2022-11-11T10:15:21;10.30;99.90
7461;DHT22;6757;52.258;12.840;2022-11-11T10:18:01;10.40;99.90
7461;DHT22;6757;52.258;12.840;2022-11-11T10:20:40;10.40;99.90
7461;DHT22;6757;52.258;12.840;2022-11-11T10:23:13;10.50;99.90
7461;DHT22;6757;52.258;12.840;2022-11-11T10:25:45;10.50;99.90
7461;DHT22;6757;52.258;12.840;2022-11-11T10:28:21;10.60;99.90
7461;DHT22;6757;52.258;12.840;2022-11-11T10:30:50;10.60;99.90
7461;DHT22;6757;52.258;12.840;2022-11-11T10:33:21;10.60;99.90
7461;DHT22;6757;52.258;12.840;2022-11-11T10:35:52;10.70;99.90
7461;DHT22;6757;52.258;12.840;2022-11-11T10:38:30;10.80;99.90
7461;DHT22;6757;52.258;12.840;2022-11-11T10:41:07;10.70;99.90
7461;DHT22;6757;52.258;12.840;2022-11-11T10:43:38;10.80;99.90
7461;DHT22;6757;52.258;12.840;2022-11-11T10:46:08;10.80;99.90
7461;DHT22;6757;52.258;12.840;2022-11-11T10:48:48;10.80;99.90
7461;DHT22;6757;52.258;12.840;2022-11-11T10:51:18;10.90;99.90
7461;DHT22;6757;52.258;12.840;2022-11-11T10:53:56;10.90;99.90
7461;DHT22;6757;52.258;12.840;2022-11-11T10:56:33;10.90;99.90
7461;DHT22;6757;52.258;12.840;2022-11-11T10:59:08;10.90;99.90
7461;DHT22;6757;52.258;12.840;2022-11-11T11:01:40;11.00;99.90
7461;DHT22;6757;52.258;12.840;2022-11-11T11:04:14;11.00;99.90
7461;DHT22;6757;52.258;12.840;2022-11-11T11:06:45;11.00;99.90
7461;DHT22;6757;52.258;12.840;2022-11-11T11:09:18;11.10;99.90
7461;DHT22;6757;52.258;12.840;2022-11-11T11:11:52;11.10;99.90
7461;DHT22;6757;52.258;12.840;2022-11-11T11:14:26;11.10;99.90
7461;DHT22;6757;52.258;12.840;2022-11-11T11:16:57;11.20;99.90
7461;DHT22;6757;52.258;12.840;2022-11-11T11:19:26;11.20;99.90
7461;DHT22;6757;52.258;12.840;2022-11-11T11:21:56;11.20;99.90
7461;DHT22;6757;52.258;12.840;2022-11-11T11:24:26;11.30;99.90
7461;DHT22;6757;52.258;12.840;2022-11-11T11:26:56;11.30;99.90
7461;DHT22;6757;52.258;12.840;2022-11-11T11:29:26;11.40;99.90
7461;DHT22;6757;52.258;12.840;2022-11-11T11:31:55;11.40;99.90
7461;DHT22;6757;52.258;12.840;2022-11-11T11:34:43;11.50;99.90
7461;DHT22;6757;52.258;12.840;2022-11-11T11:37:11;11.50;99.90
7461;DHT22;6757;52.258;12.840;2022-11-11T11:39:40;11.50;99.90
7461;DHT22;6757;52.258;12.840;2022-11-11T11:42:07;11.60;99.90
7461;DHT22;6757;52.258;12.840;2022-11-11T11:44:36;11.60;99.90
7461;DHT22;6757;52.258;12.840;2022-11-11T11:47:18;11.70;99.90
7461;DHT22;6757;52.258;12.840;2022-11-11T11:50:13;11.70;99.90
7461;DHT22;6757;52.258;12.840;2022-11-11T11:52:56;11.80;99.90
7461;DHT22;6757;52.258;12.840;2022-11-11T11:55:32;11.90;99.90
7461;DHT22;6757;52.258;12.840;2022-11-11T11:58:20;11.90;99.90
7461;DHT22;6757;52.258;12.840;2022-11-11T12:01:01;12.00;99.90
7461;DHT22;6757;52.258;12.840;2022-11-11T12:03:51;12.00;99.90
7461;DHT22;6757;52.258;12.840;2022-11-11T12:06:32;12.10;99.90
7461;DHT22;6757;52.258;12.840;2022-11-11T12:09:12;12.10;99.90
7461;DHT22;6757;52.258;12.840;2022-11-11T12:11:51;12.20;99.90
7461;DHT22;6757;52.258;12.840;2022-11-11T12:14:37;12.20;99.90
7461;DHT22;6757;52.258;12.840;2022-11-11T12:17:24;12.30;99.90
7461;DHT22;6757;52.258;12.840;2022-11-11T12:20:01;12.30;99.90
7461;DHT22;6757;52.258;12.840;2022-11-11T12:22:49;12.40;99.90
7461;DHT22;6757;52.258;12.840;2022-11-11T12:25:34;12.50;99.90
7461;DHT22;6757;52.258;12.840;2022-11-11T12:28:12;12.50;99.90
7461;DHT22;6757;52.258;12.840;2022-11-11T12:30:48;12.60;99.90
7461;DHT22;6757;52.258;12.840;2022-11-11T12:33:46;12.70;99.90
7461;DHT22;6757;52.258;12.840;2022-11-11T12:36:26;12.80;99.90
7461;DHT22;6757;52.258;12.840;2022-11-11T12:38:57;12.90;99.90
7461;DHT22;6757;52.258;12.840;2022-11-11T12:41:47;12.90;99.90
7461;DHT22;6757;52.258;12.840;2022-11-11T12:44:29;13.00;99.90
7461;DHT22;6757;52.258;12.840;2022-11-11T12:47:15;13.20;99.90
7461;DHT22;6757;52.258;12.840;2022-11-11T12:49:56;13.30;99.90
7461;DHT22;6757;52.258;12.840;2022-11-11T12:52:35;13.40;99.90
7461;DHT22;6757;52.258;12.840;2022-11-11T12:55:16;13.50;99.90
7461;DHT22;6757;52.258;12.840;2022-11-11T12:58:02;13.70;99.90
7461;DHT22;6757;52.258;12.840;2022-11-11T13:00:42;13.80;99.90
7461;DHT22;6757;52.258;12.840;2022-11-11T13:03:33;13.90;99.90
7461;DHT22;6757;52.258;12.840;2022-11-11T13:06:10;14.00;99.90
7461;DHT22;6757;52.258;12.840;2022-11-11T13:09:05;14.10;99.90
7461;DHT22;6757;52.258;12.840;2022-11-11T13:11:45;14.10;99.90
7461;DHT22;6757;52.258;12.840;2022-11-11T13:14:28;14.20;99.90
7461;DHT22;6757;52.258;12.840;2022-11-11T13:17:05;14.20;99.90
7461;DHT22;6757;52.258;12.840;2022-11-11T13:19:39;14.30;99.90
7461;DHT22;6757;52.258;12.840;2022-11-11T13:22:16;14.40;99.90
7461;DHT22;6757;52.258;12.840;2022-11-11T13:24:47;14.40;99.90
7461;DHT22;6757;52.258;12.840;2022-11-11T13:27:22;14.50;99.90
7461;DHT22;6757;52.258;12.840;2022-11-11T13:30:13;14.50;99.90
7461;DHT22;6757;52.258;12.840;2022-11-11T13:32:51;14.50;99.90
7461;DHT22;6757;52.258;12.840;2022-11-11T13:35:23;14.50;99.90
7461;DHT22;6757;52.258;12.840;2022-11-11T13:37:53;14.50;99.90
7461;DHT22;6757;52.258;12.840;2022-11-11T13:40:41;14.50;99.90
7461;DHT22;6757;52.258;12.840;2022-11-11T13:43:15;14.60;99.90
7461;DHT22;6757;52.258;12.840;2022-11-11T13:45:50;14.60;99.90
7461;DHT22;6757;52.258;12.840;2022-11-11T13:48:24;14.60;99.90
7461;DHT22;6757;52.258;12.840;2022-11-11T13:50:52;14.60;99.90
7461;DHT22;6757;52.258;12.840;2022-11-11T13:53:37;14.50;99.90
7461;DHT22;6757;52.258;12.840;2022-11-11T13:56:05;14.50;99.90
7461;DHT22;6757;52.258;12.840;2022-11-11T13:58:35;14.40;99.90
7461;DHT22;6757;52.258;12.840;2022-11-11T14:01:04;14.30;99.90
7461;DHT22;6757;52.258;12.840;2022-11-11T14:03:57;14.20;99.90
7461;DHT22;6757;52.258;12.840;2022-11-11T14:06:50;14.10;99.90
7461;DHT22;6757;52.258;12.840;2022-11-11T14:09:52;14.00;99.90
7461;DHT22;6757;52.258;12.840;2022-11-11T14:12:32;13.80;99.90
7461;DHT22;6757;52.258;12.840;2022-11-11T14:15:00;13.80;99.90
7461;DHT22;6757;52.258;12.840;2022-11-11T14:17:33;13.70;99.90
7461;DHT22;6757;52.258;12.840;2022-11-11T14:23:21;13.50;99.90
7461;DHT22;6757;52.258;12.840;2022-11-11T14:26:14;13.40;99.90
7461;DHT22;6757;52.258;12.840;2022-11-11T14:28:49;13.30;99.90
7461;DHT22;6757;52.258;12.840;2022-11-11T14:31:49;13.20;99.90
7461;DHT22;6757;52.258;12.840;2022-11-11T14:34:44;13.20;99.90
7461;DHT22;6757;52.258;12.840;2022-11-11T14:37:31;13.10;99.90
7461;DHT22;6757;52.258;12.840;2022-11-11T14:40:09;13.00;99.90
7461;DHT22;6757;52.258;12.840;2022-11-11T14:42:46;13.00;99.90
7461;DHT22;6757;52.258;12.840;2022-11-11T14:48:52;12.90;99.90
7461;DHT22;6757;52.258;12.840;2022-11-11T14:51:45;12.80;99.90
7461;DHT22;6757;52.258;12.840;2022-11-11T14:57:34;12.70;99.90
7461;DHT22;6757;52.258;12.840;2022-11-11T15:00:08;12.70;99.90
7461;DHT22;6757;52.258;12.840;2022-11-11T15:02:50;12.60;99.90
7461;DHT22;6757;52.258;12.840;2022-11-11T15:05:24;12.50;99.90
7461;DHT22;6757;52.258;12.840;2022-11-11T15:08:05;12.40;99.90
7461;DHT22;6757;52.258;12.840;2022-11-11T15:11:12;12.30;99.90
7461;DHT22;6757;52.258;12.840;2022-11-11T15:13:56;12.30;99.90
7461;DHT22;6757;52.258;12.840;2022-11-11T15:16:37;12.20;99.90
7461;DHT22;6757;52.258;12.840;2022-11-11T15:19:25;12.10;99.90
7461;DHT22;6757;52.258;12.840;2022-11-11T15:22:07;12.00;99.90
7461;DHT22;6757;52.258;12.840;2022-11-11T15:24:42;12.00;99.90
7461;DHT22;6757;52.258;12.840;2022-11-11T15:27:22;11.90;99.90
7461;DHT22;6757;52.258;12.840;2022-11-11T15:32:51;11.70;99.90
7461;DHT22;6757;52.258;12.840;2022-11-11T15:35:31;11.50;99.90
7461;DHT22;6757;52.258;12.840;2022-11-11T15:38:02;11.40;99.90
7461;DHT22;6757;52.258;12.840;2022-11-11T15:40:40;11.30;99.90
7461;DHT22;6757;52.258;12.840;2022-11-11T15:43:14;11.20;99.90
7461;DHT22;6757;52.258;12.840;2022-11-11T15:45:43;11.10;99.90
7461;DHT22;6757;52.258;12.840;2022-11-11T15:48:16;10.90;99.90
7461;DHT22;6757;52.258;12.840;2022-11-11T15:50:45;10.90;99.90
7461;DHT22;6757;52.258;12.840;2022-11-11T15:53:13;10.80;99.90
7461;DHT22;6757;52.258;12.840;2022-11-11T15:55:51;10.70;99.90
7461;DHT22;6757;52.258;12.840;2022-11-11T15:58:26;10.50;99.90
7461;DHT22;6757;52.258;12.840;2022-11-11T16:00:54;10.40;99.90
7461;DHT22;6757;52.258;12.840;2022-11-11T16:03:27;10.30;99.90
7461;DHT22;6757;52.258;12.840;2022-11-11T16:05:57;10.20;99.90
7461;DHT22;6757;52.258;12.840;2022-11-11T16:08:24;10.10;99.90
7461;DHT22;6757;52.258;12.840;2022-11-11T16:10:56;9.90;99.90
7461;DHT22;6757;52.258;12.840;2022-11-11T16:13:28;9.90;99.90
7461;DHT22;6757;52.258;12.840;2022-11-11T16:16:02;9.80;99.90
7461;DHT22;6757;52.258;12.840;2022-11-11T16:18:32;9.60;99.90
7461;DHT22;6757;52.258;12.840;2022-11-11T16:21:04;9.60;99.90
7461;DHT22;6757;52.258;12.840;2022-11-11T16:23:32;9.50;99.90
7461;DHT22;6757;52.258;12.840;2022-11-11T16:26:00;9.40;99.90
7461;DHT22;6757;52.258;12.840;2022-11-11T16:28:37;9.30;99.90
7461;DHT22;6757;52.258;12.840;2022-11-11T16:31:28;9.20;99.90
7461;DHT22;6757;52.258;12.840;2022-11-11T16:34:37;9.10;99.90
7461;DHT22;6757;52.258;12.840;2022-11-11T16:37:09;8.90;99.90
7461;DHT22;6757;52.258;12.840;2022-11-11T16:39:38;8.90;99.90
7461;DHT22;6757;52.258;12.840;2022-11-11T16:42:15;8.80;99.90
7461;DHT22;6757;52.258;12.840;2022-11-11T16:44:48;8.70;99.90
7461;DHT22;6757;52.258;12.840;2022-11-11T16:47:41;8.60;99.90
7461;DHT22;6757;52.258;12.840;2022-11-11T16:50:13;8.50;99.90